Time;durP1;ratioP1;P1;durP2;ratioP2;P2;SDS_P1;SDS_P2;PMS_P1;PMS_P2;Temp;Humidity;BMP_temperature;BMP_pressure;BME280_temperature;BME280_humidity;BME280_pressure;Samples;Min_cycle;Max_cycle;Signal;HPM_P1;HPM_P2
2022/02/17 00:00:13;;;;;;;1.60;0.70;;;;;;;13.60;75.09;97951.69;5132561;27;20483;-65
2022/02/17 00:02:42;;;;;;;1.25;0.60;;;;;;;13.58;76.24;97977.22;5114620;27;20051;-65
2022/02/17 00:05:11;;;;;;;3.13;0.80;;;;;;;13.60;77.25;97938.47;5132021;27;20050;-65
2022/02/17 00:07:39;;;;;;;2.00;0.60;;;;;;;13.57;77.55;97944.09;5132710;27;20051;-65
2022/02/17 00:10:10;;;;;;;2.08;0.60;;;;;;;13.52;77.63;97950.06;5132266;27;20477;-65
2022/02/17 00:12:38;;;;;;;3.30;0.93;;;;;;;13.54;77.82;97937.31;5132316;27;20058;-65
2022/02/17 00:15:07;;;;;;;1.75;0.60;;;;;;;13.48;77.73;97926.88;5132444;27;20043;-64
2022/02/17 00:17:36;;;;;;;1.90;0.90;;;;;;;13.48;77.33;97924.06;5117851;27;20048;-64
2022/02/17 00:20:05;;;;;;;2.17;0.80;;;;;;;13.46;76.68;97923.69;5133137;27;20079;-64
2022/02/17 00:22:32;;;;;;;2.42;0.80;;;;;;;13.48;76.10;97924.91;5132809;27;20434;-64
2022/02/17 00:25:00;;;;;;;1.48;0.57;;;;;;;13.43;74.99;97913.28;5132600;27;20050;-64
2022/02/17 00:27:27;;;;;;;2.28;0.70;;;;;;;13.39;75.54;97924.47;5120279;27;20044;-64
2022/02/17 00:29:56;;;;;;;4.72;1.23;;;;;;;13.00;84.83;97925.91;5112111;28;20051;-64
2022/02/17 00:32:24;;;;;;;4.95;1.25;;;;;;;12.91;86.48;97914.28;5119196;27;20515;-64
2022/02/17 00:34:51;;;;;;;3.78;1.60;;;;;;;12.78;87.08;97902.66;5129875;27;20058;-62
2022/02/17 00:37:19;;;;;;;3.53;1.30;;;;;;;12.72;87.39;97898.66;5132557;27;20058;-62
2022/02/17 00:39:46;;;;;;;3.85;1.30;;;;;;;12.50;86.32;97894.97;5114865;27;20051;-62
2022/02/17 00:42:15;;;;;;;6.53;1.60;;;;;;;12.24;91.34;97867.28;5130155;27;20048;-62
2022/02/17 00:44:42;;;;;;;3.42;1.65;;;;;;;12.15;92.52;97865.63;5132830;27;20052;-62
2022/02/17 00:47:14;;;;;;;2.70;1.55;;;;;;;12.15;91.66;97865.63;5129796;28;20055;-62
2022/02/17 00:49:45;;;;;;;4.47;1.52;;;;;;;12.09;91.01;97858.03;5132520;28;20051;-62
2022/02/17 00:52:14;;;;;;;5.38;1.58;;;;;;;11.96;90.44;97846.38;5132798;28;20058;-62
2022/02/17 00:54:41;;;;;;;2.45;1.10;;;;;;;11.92;91.21;97877.03;5132277;28;20051;-62
2022/02/17 00:57:09;;;;;;;6.57;1.65;;;;;;;11.71;91.51;97869.28;5132631;28;20487;-62
2022/02/17 00:59:36;;;;;;;4.05;1.20;;;;;;;11.71;93.57;97841.41;5113160;28;20492;-62
2022/02/17 01:02:04;;;;;;;3.25;1.45;;;;;;;11.72;93.91;97854.16;5120884;28;20047;-62
2022/02/17 01:04:33;;;;;;;4.03;1.30;;;;;;;11.66;94.88;97854.91;5132826;28;20484;-61
2022/02/17 01:07:01;;;;;;;5.90;1.55;;;;;;;11.50;97.03;97914.50;5132609;28;20047;-61
2022/02/17 01:09:28;;;;;;;4.30;1.30;;;;;;;11.44;100.00;97901.31;5132355;28;20047;-61
2022/02/17 01:11:56;;;;;;;7.00;1.98;;;;;;;11.48;100.00;97893.78;5131331;28;20396;-61
2022/02/17 01:14:26;;;;;;;8.60;2.28;;;;;;;11.54;100.00;97911.75;5112018;28;20051;-61
2022/02/17 01:16:55;;;;;;;5.95;2.08;;;;;;;11.55;100.00;97905.00;5118642;28;20054;-61
2022/02/17 01:19:23;;;;;;;10.30;1.90;;;;;;;11.41;100.00;97888.16;5132067;28;20074;-62
2022/02/17 01:21:52;;;;;;;6.40;1.75;;;;;;;11.20;100.00;97858.88;5126613;28;20051;-63
2022/02/17 01:24:22;;;;;;;4.63;1.42;;;;;;;11.05;100.00;97890.56;5132212;28;20484;-62
2022/02/17 01:26:56;;;;;;;5.88;2.00;;;;;;;11.10;100.00;97873.50;5132846;28;20063;-60
2022/02/17 01:29:23;;;;;;;5.72;1.50;;;;;;;11.09;100.00;97860.75;5114670;28;20052;-62
2022/02/17 01:31:51;;;;;;;4.93;1.88;;;;;;;11.16;100.00;97869.19;5111819;28;20051;-62
2022/02/17 01:34:18;;;;;;;7.05;2.17;;;;;;;11.23;100.00;97897.09;5116791;28;20500;-62
2022/02/17 01:36:46;;;;;;;5.50;1.77;;;;;;;11.20;100.00;97919.38;5132634;28;20050;-62
2022/02/17 01:39:14;;;;;;;5.75;2.17;;;;;;;11.19;100.00;97885.13;5134401;27;20053;-62
2022/02/17 01:41:42;;;;;;;7.87;2.63;;;;;;;11.24;100.00;97881.22;5135565;27;20487;-62
2022/02/17 01:44:11;;;;;;;4.65;1.40;;;;;;;11.28;100.00;97880.06;5126737;27;20051;-62
2022/02/17 01:46:43;;;;;;;5.03;1.52;;;;;;;11.03;100.00;97877.00;5115104;27;20044;-62
2022/02/17 01:49:11;;;;;;;4.72;1.50;;;;;;;10.77;100.00;97891.81;5135181;27;20054;-62
2022/02/17 01:51:39;;;;;;;7.03;2.00;;;;;;;10.94;100.00;97916.31;5136052;27;20059;-62
2022/02/17 01:54:11;;;;;;;4.57;2.22;;;;;;;10.96;100.00;97924.25;5135728;27;20403;-62
2022/02/17 01:56:42;;;;;;;7.22;3.17;;;;;;;10.77;100.00;97933.56;5135399;27;20058;-62
2022/02/17 01:59:11;;;;;;;7.03;3.20;;;;;;;10.75;100.00;97902.53;5135913;27;20055;-62
2022/02/17 02:01:39;;;;;;;7.82;3.10;;;;;;;10.76;100.00;97955.06;5126283;27;20197;-62
2022/02/17 02:04:07;;;;;;;7.40;2.83;;;;;;;10.70;100.00;97941.84;5129725;27;20062;-62
2022/02/17 02:06:34;;;;;;;11.30;3.65;;;;;;;10.69;100.00;97954.97;5135653;27;20407;-62
2022/02/17 02:09:02;;;;;;;10.07;3.58;;;;;;;10.65;99.50;97940.19;5135490;27;20077;-61
2022/02/17 02:11:30;;;;;;;12.70;3.78;;;;;;;10.74;97.79;97932.34;5135051;27;20059;-62
2022/02/17 02:13:59;;;;;;;10.27;4.57;;;;;;;10.82;98.15;97961.09;5135214;27;20054;-62
2022/02/17 02:16:26;;;;;;;8.23;2.95;;;;;;;10.74;95.38;97956.63;5125661;27;20388;-62
2022/02/17 02:18:55;;;;;;;10.00;3.70;;;;;;;10.84;95.20;97972.66;5123874;27;20051;-62
2022/02/17 02:21:24;;;;;;;11.63;3.72;;;;;;;10.90;94.27;97973.94;5135201;27;20411;-62
2022/02/17 02:23:54;;;;;;;12.43;3.30;;;;;;;11.03;91.22;97948.63;5135680;27;20051;-62
2022/02/17 02:26:21;;;;;;;;;;;;;;;11.06;90.74;97967.38;5134406;27;20089;-60
2022/02/17 02:28:49;;;;;;;10.57;4.00;;;;;;;11.05;89.79;97982.50;5135465;27;20287;-62
2022/02/17 02:31:16;;;;;;;5.57;2.88;;;;;;;11.07;89.24;97994.06;5132858;27;20094;-62
2022/02/17 02:33:43;;;;;;;8.85;2.80;;;;;;;11.07;89.26;98019.91;5133262;27;20055;-62
2022/02/17 02:36:14;;;;;;;9.32;3.55;;;;;;;11.12;88.73;98010.44;5117295;27;20052;-62
2022/02/17 02:38:43;;;;;;;11.20;3.75;;;;;;;11.12;88.76;98008.44;5129102;27;20054;-62
2022/02/17 02:41:13;;;;;;;10.57;3.97;;;;;;;11.17;87.68;98032.38;5134946;27;20058;-62
2022/02/17 02:43:40;;;;;;;8.82;3.65;;;;;;;11.24;89.86;98026.09;5135032;27;20043;-62
2022/02/17 02:46:09;;;;;;;15.10;4.32;;;;;;;11.25;88.84;98061.13;5134911;27;20044;-63
2022/02/17 02:48:36;;;;;;;10.70;4.03;;;;;;;11.21;87.01;98052.72;5130666;27;20414;-62
2022/02/17 02:51:04;;;;;;;9.73;4.15;;;;;;;11.25;86.53;98058.34;5133512;27;20043;-63
2022/02/17 02:53:31;;;;;;;11.88;3.47;;;;;;;11.23;86.45;98052.34;5134266;27;20055;-63
2022/02/17 02:56:00;;;;;;;15.98;4.70;;;;;;;11.26;88.21;98065.53;5134975;27;20050;-63
2022/02/17 02:58:27;;;;;;;14.57;4.47;;;;;;;11.26;88.21;98055.19;5134543;27;20047;-63
2022/02/17 03:00:55;;;;;;;8.23;3.10;;;;;;;11.29;85.79;98064.78;5135051;27;20043;-63
2022/02/17 03:03:22;;;;;;;11.82;3.60;;;;;;;11.25;85.19;98077.84;5132331;27;20077;-62
2022/02/17 03:05:49;;;;;;;13.88;4.00;;;;;;;11.23;83.16;98089.38;5134643;27;20058;-63
2022/02/17 03:08:17;;;;;;;10.32;3.53;;;;;;;11.24;83.93;98076.25;5134354;27;20043;-63
2022/02/17 03:10:46;;;;;;;12.77;3.53;;;;;;;11.28;84.60;98085.47;5134269;27;20047;-63
2022/02/17 03:13:15;;;;;;;13.75;4.13;;;;;;;11.26;84.49;98071.91;5134456;27;20475;-63
2022/02/17 03:15:42;;;;;;;12.38;3.70;;;;;;;11.28;84.65;98161.50;5134352;27;20047;-63
2022/02/17 03:18:09;;;;;;;11.35;3.65;;;;;;;11.24;82.14;98140.34;5125037;27;20066;-63
2022/02/17 03:20:37;;;;;;;10.77;3.38;;;;;;;11.26;82.50;98155.50;5134076;27;20042;-63
2022/02/17 03:23:04;;;;;;;12.35;3.42;;;;;;;11.28;80.40;98160.72;5134407;27;20063;-63
2022/02/17 03:25:31;;;;;;;8.43;2.80;;;;;;;11.14;77.80;98170.44;5133898;27;20399;-64
2022/02/17 03:27:58;;;;;;;16.80;3.08;;;;;;;11.11;78.08;98179.56;5134148;27;20051;-64
2022/02/17 03:30:27;;;;;;;11.35;2.70;;;;;;;11.13;78.43;98193.13;5134207;27;20058;-65
2022/02/17 03:32:55;;;;;;;14.57;4.47;;;;;;;11.05;77.74;98202.56;5132264;27;20050;-66
2022/02/17 03:35:22;;;;;;;9.82;2.80;;;;;;;10.99;77.05;98213.19;5133487;27;20062;-66
2022/02/17 03:37:50;;;;;;;11.10;2.75;;;;;;;10.98;78.49;98203.22;5133773;27;20043;-66
2022/02/17 03:40:17;;;;;;;12.00;3.00;;;;;;;11.00;79.45;98214.00;5134398;27;20479;-66
2022/02/17 03:42:44;;;;;;;11.82;3.22;;;;;;;10.92;76.44;98257.66;5133601;27;20046;-67
2022/02/17 03:45:12;;;;;;;14.43;3.97;;;;;;;10.81;74.64;98218.47;5132432;27;20058;-67
2022/02/17 03:47:41;;;;;;;12.43;3.58;;;;;;;10.88;78.24;98224.16;5133326;27;20062;-67
2022/02/17 03:50:10;;;;;;;14.33;3.13;;;;;;;10.82;76.01;98247.94;5133827;27;20427;-67
2022/02/17 03:52:38;;;;;;;10.48;3.25;;;;;;;10.83;75.96;98230.03;5133498;27;20051;-67
2022/02/17 03:55:06;;;;;;;10.00;2.53;;;;;;;10.85;77.54;98235.22;5133720;27;20047;-67
2022/02/17 03:57:33;;;;;;;15.38;3.35;;;;;;;10.85;77.42;98235.22;5133118;27;20047;-67
2022/02/17 04:00:01;;;;;;;12.75;3.03;;;;;;;10.84;75.99;98234.44;5134007;27;20070;-67
2022/02/17 04:02:28;;;;;;;12.48;3.20;;;;;;;10.87;76.99;98280.22;5130499;27;20056;-67
2022/02/17 04:04:57;;;;;;;11.27;3.80;;;;;;;10.79;73.36;98262.56;5133134;27;20054;-66
2022/02/17 04:07:24;;;;;;;9.48;2.75;;;;;;;10.84;74.14;98276.22;5129636;27;20068;-66
2022/02/17 04:09:54;;;;;;;10.52;3.10;;;;;;;10.80;74.19;98244.72;5133476;27;20051;-66
2022/02/17 04:12:21;;;;;;;13.88;3.92;;;;;;;10.81;73.23;98257.44;5123845;27;20054;-65
2022/02/17 04:14:49;;;;;;;13.38;3.55;;;;;;;10.79;73.94;98270.94;5133045;27;20051;-65
2022/02/17 04:17:19;;;;;;;19.52;3.85;;;;;;;10.85;75.92;98288.94;5130819;27;20078;-65
2022/02/17 04:19:49;;;;;;;11.07;3.28;;;;;;;10.85;74.64;98288.94;5132925;27;20055;-65
2022/02/17 04:22:18;;;;;;;12.35;3.45;;;;;;;10.79;69.08;98320.25;5133384;27;20054;-65
2022/02/17 04:24:45;;;;;;;11.82;3.00;;;;;;;10.80;71.39;98319.09;5119581;27;20055;-65
2022/02/17 04:27:13;;;;;;;12.25;3.83;;;;;;;10.75;67.81;98311.81;5127905;27;20476;-64
2022/02/17 04:29:40;;;;;;;26.70;5.20;;;;;;;10.73;67.70;98353.16;5132760;27;20051;-64
2022/02/17 04:32:08;;;;;;;15.05;3.60;;;;;;;10.74;67.95;98360.34;5130350;27;20519;-64
2022/02/17 04:34:35;;;;;;;13.52;3.75;;;;;;;10.72;68.85;98327.28;5132438;27;20055;-64
2022/02/17 04:37:02;;;;;;;11.30;2.92;;;;;;;10.75;71.56;98359.16;5132414;27;20051;-64
2022/02/17 04:39:31;;;;;;;10.63;3.10;;;;;;;10.68;68.81;98339.53;5132099;27;20419;-63
2022/02/17 04:44:44;;;;;;;14.82;4.00;;;;;;;10.64;71.43;98341.44;5136511;27;20054;-63
2022/02/17 04:47:12;;;;;;;14.02;3.42;;;;;;;10.54;70.40;98365.94;5129774;27;20051;-62
2022/02/17 04:49:39;;;;;;;14.00;3.63;;;;;;;10.48;72.15;98375.75;5132549;28;20384;-62
2022/02/17 04:52:08;;;;;;;13.10;3.20;;;;;;;10.46;72.61;98355.81;5132043;28;20352;-62
2022/02/17 04:54:37;;;;;;;14.07;3.33;;;;;;;10.41;71.27;98346.94;5132202;28;20069;-62
2022/02/17 04:57:06;;;;;;;17.83;4.27;;;;;;;10.33;69.98;98373.81;5132450;28;20043;-62
2022/02/17 04:59:34;;;;;;;11.23;3.42;;;;;;;10.29;68.43;98375.66;5132302;28;20047;-62
2022/02/17 05:02:04;;;;;;;19.23;4.18;;;;;;;10.30;69.36;98394.81;5130217;28;20059;-62
2022/02/17 05:04:32;;;;;;;16.70;4.25;;;;;;;10.33;72.28;98382.16;5132096;28;20510;-62
2022/02/17 05:06:59;;;;;;;16.70;5.00;;;;;;;10.32;70.33;98397.25;5132422;28;20112;-62
2022/02/17 05:09:26;;;;;;;17.30;3.55;;;;;;;10.33;72.02;98382.16;5131724;28;20054;-62
2022/02/17 05:11:55;;;;;;;16.58;3.38;;;;;;;10.35;70.32;98416.81;5111829;28;20058;-62
2022/02/17 05:14:23;;;;;;;13.02;3.60;;;;;;;10.34;69.29;98401.28;5114754;28;20070;-62
2022/02/17 05:16:50;;;;;;;16.27;3.92;;;;;;;10.33;68.13;98396.91;5126073;27;20062;-61
2022/02/17 05:19:17;;;;;;;13.00;3.13;;;;;;;10.38;69.74;98418.06;5135913;27;20075;-62
2022/02/17 05:21:45;;;;;;;15.98;3.33;;;;;;;10.39;68.63;98416.88;5136105;27;20505;-62
2022/02/17 05:24:12;;;;;;;13.18;3.50;;;;;;;10.42;68.43;98423.72;5136668;27;20383;-62
2022/02/17 05:26:39;;;;;;;14.80;3.83;;;;;;;10.43;69.41;98417.75;5135855;27;20047;-62
2022/02/17 05:29:08;;;;;;;23.02;4.85;;;;;;;10.29;71.02;98421.06;5136068;27;20403;-61
2022/02/17 05:31:36;;;;;;;12.25;3.50;;;;;;;10.23;72.28;98414.13;5126145;27;20055;-63
2022/02/17 05:34:03;;;;;;;16.10;4.13;;;;;;;10.22;71.44;98436.72;5115672;28;20052;-62
2022/02/17 05:36:31;;;;;;;16.45;3.70;;;;;;;10.15;70.70;98410.38;5133095;27;20050;-61
2022/02/17 05:38:58;;;;;;;15.57;3.78;;;;;;;10.10;69.49;98440.44;5135985;27;20043;-62
2022/02/17 05:41:28;;;;;;;18.48;4.68;;;;;;;10.13;71.13;98451.66;5136058;27;20047;-64
2022/02/17 05:43:56;;;;;;;13.70;3.78;;;;;;;10.13;68.65;98462.78;5135701;27;20514;-63
2022/02/17 05:46:25;;;;;;;13.32;4.68;;;;;;;10.12;67.81;98449.22;5132968;27;20051;-62
2022/02/17 05:48:52;;;;;;;15.45;4.00;;;;;;;10.11;69.45;98453.97;5135625;27;20393;-63
2022/02/17 05:51:23;;;;;;;14.43;3.28;;;;;;;10.11;68.79;98458.75;5135919;27;20058;-62
2022/02/17 05:53:51;;;;;;;15.95;3.60;;;;;;;10.08;68.39;98467.78;5135734;27;20415;-63
2022/02/17 05:56:18;;;;;;;16.92;3.75;;;;;;;10.18;70.86;98483.13;5135062;27;20047;-62
2022/02/17 05:58:46;;;;;;;16.88;4.15;;;;;;;10.19;70.11;98471.66;5134729;27;20047;-62
2022/02/17 06:01:13;;;;;;;16.98;4.20;;;;;;;10.18;70.10;98483.13;5133847;27;20055;-63
2022/02/17 06:03:42;;;;;;;14.52;3.78;;;;;;;10.15;70.54;98477.13;5118674;27;20056;-63
2022/02/17 06:06:09;;;;;;;20.05;5.25;;;;;;;10.20;71.46;98483.59;5133888;27;20047;-62
2022/02/17 06:08:37;;;;;;;21.33;4.40;;;;;;;10.11;70.58;98490.16;5135192;27;20051;-62
2022/02/17 06:11:05;;;;;;;17.95;4.40;;;;;;;10.16;72.18;98484.31;5118445;27;20051;-61
2022/02/17 06:13:32;;;;;;;17.35;5.10;;;;;;;10.06;68.68;98497.97;5134380;27;20058;-63
2022/02/17 06:15:59;;;;;;;13.38;4.47;;;;;;;10.07;70.96;98483.69;5133523;27;20059;-62
2022/02/17 06:18:27;;;;;;;17.63;4.15;;;;;;;10.05;69.51;98502.72;5130867;27;20484;-62
2022/02/17 06:20:59;;;;;;;16.80;3.50;;;;;;;10.01;68.35;98504.59;5129716;27;20051;-64
2022/02/17 06:23:26;;;;;;;20.33;4.75;;;;;;;10.04;66.93;98520.56;5114421;27;20047;-62
2022/02/17 06:25:54;;;;;;;18.67;4.88;;;;;;;10.06;68.55;98506.31;5131106;27;20056;-62
2022/02/17 06:28:22;;;;;;;13.95;3.80;;;;;;;10.04;67.24;98495.53;5118919;27;20039;-63
2022/02/17 06:30:49;;;;;;;15.43;4.47;;;;;;;10.06;68.44;98506.31;5131869;27;20050;-63
2022/02/17 06:33:19;;;;;;;13.75;3.85;;;;;;;10.08;68.83;98503.94;5133309;27;20058;-62
2022/02/17 06:35:46;;;;;;;15.73;3.83;;;;;;;10.12;70.53;98502.91;5133736;27;20048;-62
2022/02/17 06:38:15;;;;;;;19.45;4.63;;;;;;;10.09;69.21;98513.94;5133535;27;20510;-62
2022/02/17 06:40:42;;;;;;;16.83;4.38;;;;;;;10.12;69.55;98516.81;5132960;27;20039;-62
2022/02/17 06:43:11;;;;;;;15.90;4.22;;;;;;;10.13;69.73;98520.38;5132024;27;20058;-63
2022/02/17 06:45:40;;;;;;;16.98;4.30;;;;;;;10.17;69.48;98540.75;5130026;27;20054;-62
2022/02/17 06:48:09;;;;;;;16.48;4.07;;;;;;;10.13;67.48;98532.31;5134516;27;20051;-63
2022/02/17 06:50:36;;;;;;;17.83;4.05;;;;;;;10.13;67.65;98560.13;5133514;27;20051;-62
2022/02/17 06:53:04;;;;;;;16.38;4.30;;;;;;;10.12;66.33;98564.09;5132724;27;20059;-64
2022/02/17 06:55:34;;;;;;;18.95;4.72;;;;;;;10.16;65.72;98558.59;5129307;27;20051;-63
2022/02/17 06:58:01;;;;;;;17.40;4.25;;;;;;;10.21;67.33;98568.69;5134576;27;20505;-63
2022/02/17 07:00:29;;;;;;;20.67;5.53;;;;;;;10.20;67.42;98578.97;5132073;27;20062;-63
2022/02/17 07:02:57;;;;;;;14.88;3.83;;;;;;;10.19;66.90;98601.63;5140727;27;20051;-61
2022/02/17 07:05:26;;;;;;;17.42;4.65;;;;;;;10.11;66.20;98573.59;5135731;27;20483;-64
2022/02/17 07:07:57;;;;;;;17.02;3.78;;;;;;;10.18;66.32;98594.44;5133175;27;20066;-63
2022/02/17 07:13:11;;;;;;;16.17;4.10;;;;;;;10.18;65.47;98630.59;5120140;28;20055;-63
2022/02/17 07:15:39;;;;;;;17.02;4.10;;;;;;;10.23;68.60;98639.50;5109787;28;20051;-63
2022/02/17 07:18:08;;;;;;;9.93;3.67;;;;;;;10.07;69.22;98681.19;5087558;28;20063;-63
2022/02/17 07:20:37;;;;;;;11.40;2.78;;;;;;;9.79;67.24;98677.63;5093061;28;20063;-63
2022/02/17 07:23:05;;;;;;;9.05;2.20;;;;;;;9.74;68.84;98729.53;5110635;28;20048;-63
2022/02/17 07:25:36;;;;;;;8.90;2.22;;;;;;;9.55;69.58;98751.56;5088369;27;20047;-63
2022/02/17 07:28:04;;;;;;;10.45;2.65;;;;;;;9.39;71.92;98770.94;5098589;28;20056;-63
2022/02/17 07:30:35;;;;;;;10.65;3.60;;;;;;;9.34;72.79;98785.03;5083534;28;20052;-63
2022/02/17 07:33:03;;;;;;;10.55;2.70;;;;;;;9.15;74.47;98774.50;5081066;28;20039;-63
2022/02/17 07:35:30;;;;;;;13.38;3.03;;;;;;;8.92;74.53;98749.97;5088606;28;20051;-64
2022/02/17 07:38:01;;;;;;;10.02;3.38;;;;;;;8.72;74.33;98778.63;5094415;28;20059;-63
2022/02/17 07:40:29;;;;;;;10.57;2.63;;;;;;;8.56;75.46;98814.53;5094156;28;20425;-63
2022/02/17 07:42:56;;;;;;;10.32;3.33;;;;;;;8.43;75.87;98796.25;5092405;28;20063;-62
2022/02/17 07:45:24;;;;;;;8.18;2.28;;;;;;;8.35;76.31;98795.13;5093454;28;20056;-64
2022/02/17 07:47:54;;;;;;;6.20;1.70;;;;;;;8.24;76.04;98799.47;5085157;28;20515;-63
2022/02/17 07:50:25;;;;;;;7.97;2.00;;;;;;;8.22;76.75;98801.78;5078025;28;20054;-63
2022/02/17 07:52:56;;;;;;;8.35;2.13;;;;;;;8.24;77.29;98803.06;5090163;28;20048;-57
2022/02/17 07:55:28;;;;;;;7.35;2.33;;;;;;;8.22;75.30;98802.59;5083728;28;20048;-61
2022/02/17 07:58:00;;;;;;;8.90;3.03;;;;;;;8.22;76.10;98810.91;5086963;28;20061;-58
2022/02/17 08:00:28;;;;;;;8.63;2.53;;;;;;;8.27;76.00;98812.66;5087514;28;20051;-59
2022/02/17 08:02:57;;;;;;;11.23;3.25;;;;;;;8.27;75.50;98807.94;5087889;28;20052;-59
2022/02/17 08:05:26;;;;;;;11.07;3.00;;;;;;;8.18;73.90;98814.72;5091978;28;20063;-59
2022/02/17 08:07:57;;;;;;;11.83;3.57;;;;;;;8.23;74.62;98812.53;5089465;28;20055;-58
2022/02/17 08:10:28;;;;;;;12.50;2.97;;;;;;;8.31;74.87;98813.59;5095698;28;20492;-59
2022/02/17 08:12:55;;;;;;;13.30;3.10;;;;;;;9.28;70.36;98809.50;5089858;28;20055;-59
2022/02/17 08:15:25;;;;;;;10.27;3.05;;;;;;;11.60;67.55;98794.13;5091505;28;20086;-59
2022/02/17 08:17:53;;;;;;;9.27;2.38;;;;;;;13.18;63.09;98795.34;5080167;28;20526;-59
2022/02/17 08:20:25;;;;;;;9.80;2.78;;;;;;;14.57;55.18;98784.63;5101602;28;20053;-59
2022/02/17 08:22:54;;;;;;;11.95;2.83;;;;;;;15.16;58.37;98798.84;5090433;28;20066;-59
2022/02/17 08:25:22;;;;;;;9.38;2.75;;;;;;;14.13;55.31;98829.22;5090891;28;20052;-59
2022/02/17 08:27:52;;;;;;;9.88;2.95;;;;;;;13.50;54.56;98811.06;5090292;28;20083;-59
2022/02/17 08:30:20;;;;;;;12.23;2.65;;;;;;;13.09;57.38;98819.16;5094961;28;20063;-58
2022/02/17 08:32:47;;;;;;;11.30;3.00;;;;;;;12.53;55.49;98823.28;5074374;28;20056;-58
2022/02/17 08:35:16;;;;;;;13.88;3.20;;;;;;;12.50;59.12;98824.81;5093885;28;20078;-59
2022/02/17 08:37:47;;;;;;;15.68;3.95;;;;;;;12.31;57.19;98824.84;5106366;28;20043;-59
2022/02/17 08:40:14;;;;;;;13.52;2.90;;;;;;;11.86;59.53;98824.19;5090538;28;20052;-59
2022/02/17 08:42:42;;;;;;;11.48;3.15;;;;;;;10.95;59.69;98909.53;5089979;28;20052;-59
2022/02/17 08:45:10;;;;;;;6.65;2.30;;;;;;;10.37;62.77;98928.53;5097410;28;20062;-59
2022/02/17 08:47:39;;;;;;;7.55;2.70;;;;;;;9.77;67.44;98950.44;5094418;28;20063;-59
2022/02/17 08:50:09;;;;;;;7.93;2.22;;;;;;;9.32;70.55;99010.47;5097558;28;20052;-58
2022/02/17 08:52:36;;;;;;;9.43;2.58;;;;;;;8.74;70.25;98949.25;5090369;28;20044;-58
2022/02/17 08:55:07;;;;;;;9.60;2.47;;;;;;;8.33;71.68;98950.81;5105674;28;20054;-58
2022/02/17 08:57:35;;;;;;;13.85;3.63;;;;;;;8.04;71.88;98953.63;5108889;28;20496;-58
2022/02/17 09:00:03;;;;;;;9.90;3.08;;;;;;;8.01;72.70;98941.25;5091324;28;20044;-58
2022/02/17 09:02:31;;;;;;;12.95;3.03;;;;;;;8.00;73.47;98955.44;5075968;28;20060;-58
2022/02/17 09:04:58;;;;;;;12.60;2.95;;;;;;;8.03;72.85;98947.25;5090908;28;20040;-60
2022/02/17 09:07:25;;;;;;;9.50;2.97;;;;;;;8.19;73.54;98950.28;5099367;28;20428;-60
2022/02/17 09:09:53;;;;;;;16.33;4.15;;;;;;;10.62;69.00;98943.19;5090333;28;20044;-60
2022/02/17 09:12:21;;;;;;;15.57;3.75;;;;;;;10.75;66.47;98941.19;5121540;28;20058;-60
2022/02/17 09:14:48;;;;;;;9.93;3.17;;;;;;;11.00;66.77;98946.66;5130860;28;20379;-59
2022/02/17 09:17:16;;;;;;;12.73;3.40;;;;;;;13.02;61.61;98945.63;5123333;28;20062;-58
2022/02/17 09:19:44;;;;;;;11.30;2.90;;;;;;;15.07;56.88;98940.53;5130269;28;20472;-60
2022/02/17 09:22:11;;;;;;;8.07;2.40;;;;;;;17.19;53.42;98940.22;5130999;28;20066;-60
2022/02/17 09:24:39;;;;;;;7.18;2.95;;;;;;;19.15;48.45;98954.69;5129807;28;20051;-60
2022/02/17 09:27:06;;;;;;;8.32;2.80;;;;;;;19.98;42.86;98955.81;5130159;28;20059;-60
2022/02/17 09:29:35;;;;;;;9.00;2.85;;;;;;;19.17;42.90;98961.53;5129687;28;20476;-60
2022/02/17 09:32:04;;;;;;;9.25;2.38;;;;;;;18.84;41.75;98957.22;5120484;28;20047;-60
2022/02/17 09:34:31;;;;;;;6.75;2.25;;;;;;;16.95;43.89;98976.28;5115675;28;20052;-60
2022/02/17 09:36:58;;;;;;;6.90;2.10;;;;;;;15.38;44.38;98993.41;5129329;28;20419;-59
2022/02/17 09:39:28;;;;;;;5.80;1.70;;;;;;;14.33;46.31;98989.53;5129959;28;20055;-59
2022/02/17 09:41:56;;;;;;;5.60;1.90;;;;;;;13.20;47.91;99019.44;5130164;28;20055;-58
2022/02/17 09:44:24;;;;;;;6.85;2.28;;;;;;;13.84;46.34;99007.94;5129499;28;20061;-59
2022/02/17 09:46:53;;;;;;;6.28;2.28;;;;;;;17.33;40.20;99023.91;5127837;28;20062;-59
2022/02/17 09:49:22;;;;;;;7.65;1.90;;;;;;;16.59;41.78;99039.91;5130338;28;20062;-56
2022/02/17 09:51:51;;;;;;;5.10;2.42;;;;;;;18.14;40.36;99005.63;5130490;28;20052;-59
2022/02/17 09:54:20;;;;;;;6.03;2.05;;;;;;;20.21;36.93;99002.50;5129396;28;20059;-59
2022/02/17 09:56:47;;;;;;;4.75;1.98;;;;;;;21.49;32.30;99005.28;5120320;28;20055;-58
2022/02/17 09:59:15;;;;;;;6.55;2.25;;;;;;;22.53;34.02;99017.09;5112099;28;20047;-59
2022/02/17 10:01:54;;;;;;;6.15;2.15;;;;;;;23.04;30.30;99009.34;5129667;27;20050;-59
2022/02/17 10:04:23;;;;;;;6.68;2.15;;;;;;;22.21;33.54;99024.09;5132878;27;20047;-59
2022/02/17 10:06:52;;;;;;;7.00;2.42;;;;;;;24.06;30.62;99013.25;5133075;27;20062;-59
2022/02/17 10:09:22;;;;;;;8.07;2.63;;;;;;;23.65;31.02;99027.97;5127178;27;20051;-59
2022/02/17 10:11:53;;;;;;;7.78;2.65;;;;;;;21.68;33.57;99034.97;5133570;27;20430;-59
2022/02/17 10:14:21;;;;;;;7.30;2.78;;;;;;;22.53;31.28;99051.16;5133532;27;20062;-59
2022/02/17 10:16:58;;;;;;;7.07;2.45;;;;;;;20.79;33.68;99076.38;5131304;27;20058;-59
2022/02/17 10:19:30;;;;;;;5.63;1.98;;;;;;;18.81;32.41;99110.38;5133438;27;20055;-59
2022/02/17 10:22:05;;;;;;;6.70;2.13;;;;;;;17.56;32.65;99099.59;5133429;27;20046;-59
2022/02/17 10:24:41;;;;;;;6.28;2.35;;;;;;;17.44;34.84;99118.44;5133355;27;20414;-59
2022/02/17 10:27:10;;;;;;;4.75;1.50;;;;;;;16.09;34.13;99109.72;5127299;27;20054;-59
2022/02/17 10:29:38;;;;;;;11.02;2.17;;;;;;;14.95;37.14;99121.03;5120937;27;20067;-59
2022/02/17 10:32:10;;;;;;;11.90;2.38;;;;;;;14.96;38.20;99117.84;5119574;27;20055;-59
2022/02/17 10:34:38;;;;;;;5.07;1.90;;;;;;;15.51;37.66;99102.59;5129019;27;20055;-58
2022/02/17 10:37:10;;;;;;;7.10;1.77;;;;;;;14.56;38.89;99116.41;5133158;27;20051;-59
2022/02/17 10:39:42;;;;;;;7.45;2.00;;;;;;;13.90;41.41;99111.97;5133222;27;20051;-59
2022/02/17 10:42:11;;;;;;;6.55;2.25;;;;;;;13.35;41.53;99112.06;5132987;27;20059;-59
2022/02/17 10:44:41;;;;;;;7.18;2.00;;;;;;;12.99;42.83;99122.44;5133046;27;20054;-59
2022/02/17 10:47:13;;;;;;;;;;;;;;;12.67;44.54;99118.88;5121447;27;20051;-59
2022/02/17 10:49:44;;;;;;;5.75;2.35;;;;;;;14.78;40.39;99122.38;5130440;27;19920;-59
2022/02/17 10:52:28;;;;;;;7.30;1.70;;;;;;;15.16;39.43;99138.19;5132508;27;20043;-59
2022/02/17 10:55:17;;;;;;;4.72;2.10;;;;;;;15.17;40.14;99147.41;5132872;27;20403;-59
2022/02/17 10:57:45;;;;;;;6.95;1.95;;;;;;;14.26;39.13;99168.66;5129941;27;20055;-57
2022/02/17 11:00:15;;;;;;;8.95;2.50;;;;;;;14.89;37.57;99167.38;5131479;27;20051;-59
2022/02/17 11:02:46;;;;;;;6.60;1.88;;;;;;;14.86;35.75;99168.97;5129335;27;20047;-59
2022/02/17 11:05:15;;;;;;;5.10;1.58;;;;;;;14.40;37.07;99155.75;5128185;27;20479;-59
2022/02/17 11:07:44;;;;;;;6.32;1.98;;;;;;;14.11;37.78;99162.81;5128122;27;20070;-59
2022/02/17 11:10:13;;;;;;;8.02;1.95;;;;;;;13.47;40.01;99167.06;5126980;27;20356;-58
2022/02/17 11:12:46;;;;;;;7.70;2.03;;;;;;;13.18;42.79;99178.38;5130064;27;20062;-58
2022/02/17 11:15:13;;;;;;;6.45;2.40;;;;;;;12.90;44.86;99192.50;5131289;27;20043;-58
2022/02/17 11:17:43;;;;;;;6.53;1.92;;;;;;;12.63;47.13;99210.16;5131361;27;20046;-58
2022/02/17 11:20:17;;;;;;;5.55;1.88;;;;;;;12.35;47.77;99216.63;5127570;27;20498;-58
2022/02/17 11:22:50;;;;;;;8.48;1.98;;;;;;;12.41;46.39;99206.81;5131849;27;20047;-58
2022/02/17 11:25:32;;;;;;;5.82;1.67;;;;;;;12.38;48.08;99215.88;5130161;27;20047;-58
2022/02/17 11:28:01;;;;;;;5.90;1.70;;;;;;;12.96;46.55;99207.00;5126778;27;20090;-58
2022/02/17 11:30:31;;;;;;;8.95;3.10;;;;;;;13.56;44.87;99201.25;5129442;27;20404;-58
2022/02/17 11:33:16;;;;;;;;;;;;;;;14.90;42.85;99213.88;5130648;27;20384;-60
2022/02/17 11:35:45;;;;;;;5.30;1.85;;;;;;;14.88;43.56;99211.44;5131803;27;19926;-58
2022/02/17 11:38:31;;;;;;;4.55;1.55;;;;;;;14.74;42.20;99211.19;5130413;27;20058;-57
2022/02/17 11:41:00;;;;;;;6.05;2.25;;;;;;;14.24;41.73;99216.66;5129069;27;20042;-57